createdAt,value
2023-02-19T00:00:02.236Z,101086.34
2023-02-19T00:05:03.959Z,101088.97
2023-02-19T00:10:05.696Z,101097.72
2023-02-19T00:15:07.420Z,101106.38
2023-02-19T00:20:09.229Z,101100.47
2023-02-19T00:25:10.677Z,101109.03
2023-02-19T00:30:12.322Z,101107.50
2023-02-19T00:35:13.848Z,101098.22
2023-02-19T00:40:15.360Z,101099.56
2023-02-19T00:45:16.888Z,101099.97
2023-02-19T00:50:18.378Z,101106.41
2023-02-19T00:55:19.837Z,101105.78
2023-02-19T01:00:21.338Z,101104.75
2023-02-19T01:05:22.805Z,101110.84
2023-02-19T01:10:24.270Z,101103.84
2023-02-19T01:15:25.723Z,101111.47
2023-02-19T01:20:27.363Z,101111.50
2023-02-19T01:25:28.833Z,101114.16
2023-02-19T01:30:30.339Z,101107.41
2023-02-19T01:35:31.814Z,101119.63
2023-02-19T01:40:33.291Z,101115.81
2023-02-19T01:45:35.455Z,101118.16
2023-02-19T01:50:45.773Z,101117.31
2023-02-19T01:55:47.842Z,101117.25
2023-02-19T02:00:51.654Z,101113.59
2023-02-19T02:06:14.758Z,101104.25
2023-02-19T02:11:16.554Z,101111.66
2023-02-19T02:16:45.172Z,101111.66
2023-02-19T02:22:12.489Z,101117.19
2023-02-19T02:27:42.922Z,101123.09
2023-02-19T02:33:26.546Z,101126.44
2023-02-19T02:38:29.577Z,101125.66
2023-02-19T02:43:31.035Z,101121.56
2023-02-19T02:48:38.379Z,101120.28
2023-02-19T02:54:23.203Z,101124.50
2023-02-19T02:59:26.134Z,101139.13
2023-02-19T03:04:34.217Z,101134.19
2023-02-19T03:09:40.583Z,101134.88
2023-02-19T03:15:04.281Z,101149.19
2023-02-19T03:20:07.547Z,101170.16
2023-02-19T03:25:49.302Z,101188.63
2023-02-19T03:30:51.679Z,101200.63
2023-02-19T03:35:57.165Z,101216.44
2023-02-19T03:41:04.246Z,101217.13
2023-02-19T03:46:15.500Z,101222.59
2023-02-19T03:51:39.182Z,101226.16
2023-02-19T03:57:01.348Z,101224.97
2023-02-19T04:02:36.258Z,101227.34
2023-02-19T04:07:40.028Z,101237.25
2023-02-19T04:12:43.521Z,101234.50
2023-02-19T04:17:51.969Z,101243.72
2023-02-19T04:22:53.424Z,101238.38
2023-02-19T04:27:54.957Z,101246.03
2023-02-19T04:32:56.431Z,101267.84
2023-02-19T04:37:57.890Z,101266.81
2023-02-19T04:42:59.535Z,101263.94
2023-02-19T04:48:00.989Z,101283.25
2023-02-19T04:53:02.464Z,101292.31
2023-02-19T04:58:04.078Z,101299.44
2023-02-19T05:03:05.539Z,101317.41
2023-02-19T05:08:06.996Z,101316.56
2023-02-19T05:13:08.570Z,101328.56
2023-02-19T05:18:10.037Z,101346.28
2023-02-19T05:23:11.543Z,101358.41
2023-02-19T05:28:18.835Z,101359.09
2023-02-19T05:33:21.824Z,101359.41
2023-02-19T05:38:23.434Z,101352.53
2023-02-19T05:43:24.901Z,101372.44
2023-02-19T05:48:26.350Z,101373.47
2023-02-19T05:53:27.806Z,101380.28
2023-02-19T05:58:29.352Z,101381.06
2023-02-19T06:03:30.833Z,101391.56
2023-02-19T06:08:33.483Z,101403.56
2023-02-19T06:13:34.954Z,101419.00
2023-02-19T06:18:36.443Z,101436.09
2023-02-19T06:23:38.401Z,101440.88
2023-02-19T06:28:40.007Z,101452.63
2023-02-19T06:33:41.498Z,101457.81
2023-02-19T06:38:43.023Z,101470.91
2023-02-19T06:43:44.572Z,101476.09
2023-02-19T06:48:46.040Z,101492.41
2023-02-19T06:53:47.507Z,101497.25
2023-02-19T06:58:48.962Z,101498.16
2023-02-19T07:03:51.043Z,101512.13
2023-02-19T07:08:52.625Z,101508.56
2023-02-19T07:13:57.734Z,101526.78
2023-02-19T07:18:59.487Z,101530.09
2023-02-19T07:24:00.943Z,101537.94
2023-02-19T07:29:02.400Z,101531.91
2023-02-19T07:34:03.852Z,101529.16
2023-02-19T07:39:05.324Z,101530.94
2023-02-19T07:44:06.830Z,101541.72
2023-02-19T07:49:08.337Z,101548.47
2023-02-19T07:54:09.836Z,101557.66
2023-02-19T07:59:11.771Z,101556.47
2023-02-19T08:04:13.735Z,101565.69
2023-02-19T08:09:15.183Z,101562.16
2023-02-19T08:14:16.642Z,101564.53
2023-02-19T08:19:18.191Z,101581.66
2023-02-19T08:24:19.657Z,101594.50
2023-02-19T08:29:21.126Z,101592.56
2023-02-19T08:34:22.583Z,101594.19
2023-02-19T08:39:24.132Z,101612.66
2023-02-19T08:44:25.680Z,101616.50
2023-02-19T08:49:27.259Z,101636.38
2023-02-19T08:54:29.003Z,101659.59
2023-02-19T08:59:30.717Z,101668.13
2023-02-19T09:04:32.205Z,101684.84
2023-02-19T09:09:34.066Z,101692.72
2023-02-19T09:14:35.554Z,101689.97
2023-02-19T09:19:37.055Z,101691.19
2023-02-19T09:24:38.519Z,101701.50
2023-02-19T09:29:39.998Z,101718.47
2023-02-19T09:34:41.698Z,101732.00
2023-02-19T09:39:43.162Z,101735.59
2023-02-19T09:44:47.957Z,101741.44
2023-02-19T09:49:52.066Z,101736.84
2023-02-19T09:54:57.570Z,101727.38
2023-02-19T10:00:26.730Z,101723.63
2023-02-19T10:05:28.307Z,101745.25
2023-02-19T10:10:33.077Z,101760.00
2023-02-19T10:15:49.434Z,101769.22
2023-02-19T10:20:51.370Z,101793.44
2023-02-19T10:25:54.621Z,101807.28
2023-02-19T10:30:56.791Z,101803.56
2023-02-19T10:35:59.716Z,101800.84
2023-02-19T10:41:13.139Z,101797.97
2023-02-19T10:46:28.326Z,101803.34
2023-02-19T10:51:39.472Z,101817.00
2023-02-19T10:56:42.032Z,101817.88
2023-02-19T11:01:59.748Z,101819.00
2023-02-19T11:07:19.295Z,101812.69
2023-02-19T11:12:26.794Z,101814.09
2023-02-19T11:17:29.134Z,101807.34
2023-02-19T11:22:37.993Z,101804.34
2023-02-19T11:27:54.337Z,101796.78
2023-02-19T11:32:56.395Z,101799.72
2023-02-19T11:37:59.248Z,101790.75
2023-02-19T11:43:23.407Z,101797.94
2023-02-19T11:48:36.239Z,101796.34
2023-02-19T11:53:42.132Z,101809.72
2023-02-19T11:59:18.794Z,101813.97
2023-02-19T12:04:38.717Z,101829.34
2023-02-19T12:10:02.634Z,101837.56
2023-02-19T12:15:44.193Z,101846.34
2023-02-19T12:21:04.359Z,101840.66
2023-02-19T12:26:17.804Z,101846.31
2023-02-19T12:31:27.929Z,101853.16
2023-02-19T12:37:07.015Z,101836.84
2023-02-19T12:42:14.812Z,101823.50
2023-02-19T12:47:23.421Z,101815.38
2023-02-19T12:52:26.365Z,101807.44
2023-02-19T12:57:30.026Z,101823.44
2023-02-19T13:02:48.586Z,101825.13
2023-02-19T13:07:56.959Z,101834.75
2023-02-19T13:13:00.003Z,101843.94
2023-02-19T13:18:01.682Z,101840.31
2023-02-19T13:23:31.138Z,101842.31
2023-02-19T13:28:42.488Z,101846.44
2023-02-19T13:34:20.429Z,101838.81
2023-02-19T13:39:21.925Z,101831.88
2023-02-19T13:44:25.733Z,101825.38
2023-02-19T13:49:33.863Z,101806.63
2023-02-19T13:54:39.857Z,101802.09
2023-02-19T13:59:41.587Z,101777.25
2023-02-19T14:05:00.350Z,101764.78
2023-02-19T14:10:02.151Z,101746.19
2023-02-19T14:15:40.335Z,101749.00
2023-02-19T14:20:43.488Z,101739.09
2023-02-19T14:25:50.222Z,101740.03
2023-02-19T14:30:58.381Z,101755.81
2023-02-19T14:36:05.806Z,101770.69
2023-02-19T14:41:07.308Z,101761.56
2023-02-19T14:46:29.367Z,101773.84
2023-02-19T14:51:36.471Z,101776.44
2023-02-19T14:56:37.924Z,101781.97
2023-02-19T15:01:39.662Z,101775.28
2023-02-19T15:06:41.229Z,101775.41
2023-02-19T15:11:42.701Z,101796.69
2023-02-19T15:16:44.150Z,101782.94
2023-02-19T15:21:47.147Z,101783.78
2023-02-19T15:26:54.109Z,101775.75
2023-02-19T15:31:57.242Z,101766.41
2023-02-19T15:37:01.053Z,101769.75
2023-02-19T15:42:03.048Z,101769.69
2023-02-19T15:47:08.857Z,101772.47
2023-02-19T15:52:11.423Z,101775.44
2023-02-19T15:57:16.660Z,101782.00
2023-02-19T16:02:18.101Z,101779.13
2023-02-19T16:07:32.493Z,101779.97
2023-02-19T16:12:33.968Z,101778.22
2023-02-19T16:17:35.443Z,101786.91
2023-02-19T16:22:40.977Z,101801.53
2023-02-19T16:27:42.538Z,101790.22
2023-02-19T16:32:47.132Z,101787.78
2023-02-19T16:37:58.557Z,101807.03
2023-02-19T16:43:13.897Z,101784.38
2023-02-19T16:48:15.348Z,101793.38
2023-02-19T16:53:21.225Z,101790.91
2023-02-19T16:58:22.698Z,101794.47
2023-02-19T17:03:24.715Z,101799.56
2023-02-19T17:08:34.390Z,101784.00
2023-02-19T17:13:35.889Z,101784.22
2023-02-19T17:18:37.593Z,101785.97
2023-02-19T17:23:39.132Z,101787.06
2023-02-19T17:28:41.519Z,101785.25
2023-02-19T17:33:43.376Z,101779.78
2023-02-19T17:38:45.010Z,101790.50
2023-02-19T17:43:47.456Z,101787.03
2023-02-19T17:48:49.186Z,101795.56
2023-02-19T17:53:50.691Z,101777.81
2023-02-19T17:58:52.482Z,101773.41
2023-02-19T18:03:54.022Z,101771.50
2023-02-19T18:08:55.527Z,101769.94
2023-02-19T18:13:57.021Z,101745.03
2023-02-19T18:19:01.387Z,101740.53
2023-02-19T18:24:02.843Z,101737.44
2023-02-19T18:29:05.146Z,101739.78
2023-02-19T18:34:07.517Z,101732.47
2023-02-19T18:39:08.981Z,101731.13
2023-02-19T18:44:10.448Z,101736.84
2023-02-19T18:49:11.924Z,101727.31
2023-02-19T18:54:13.406Z,101720.03
2023-02-19T18:59:15.056Z,101711.09
2023-02-19T19:04:16.663Z,101716.88
2023-02-19T19:09:18.193Z,101728.34
2023-02-19T19:14:19.699Z,101701.97
2023-02-19T19:19:21.189Z,101695.13
2023-02-19T19:24:23.071Z,101683.50
2023-02-19T19:29:24.562Z,101689.56
2023-02-19T19:34:26.105Z,101673.09
2023-02-19T19:39:27.580Z,101660.50
2023-02-19T19:44:29.110Z,101654.91
2023-02-19T19:49:30.573Z,101661.34
2023-02-19T19:54:32.120Z,101658.28
2023-02-19T19:59:33.575Z,101644.94
2023-02-19T20:04:35.291Z,101648.72
2023-02-19T20:09:36.793Z,101646.56
2023-02-19T20:14:38.271Z,101646.34
2023-02-19T20:19:39.841Z,101652.78
2023-02-19T20:24:41.311Z,101643.94
2023-02-19T20:29:44.506Z,101632.47
2023-02-19T20:34:46.317Z,101631.28
2023-02-19T20:39:47.801Z,101631.44
2023-02-19T20:44:49.246Z,101611.06
2023-02-19T20:49:51.763Z,101606.50
2023-02-19T20:54:56.557Z,101602.69
2023-02-19T20:59:58.036Z,101606.50
2023-02-19T21:04:59.782Z,101596.75
2023-02-19T21:10:01.238Z,101578.75
2023-02-19T21:15:02.691Z,101608.56
2023-02-19T21:20:04.394Z,101615.59
2023-02-19T21:25:06.108Z,101615.84
2023-02-19T21:30:08.054Z,101607.41
2023-02-19T21:35:09.622Z,101595.88
2023-02-19T21:40:12.111Z,101619.31
2023-02-19T21:45:13.618Z,101617.84
2023-02-19T21:50:15.060Z,101616.56
2023-02-19T21:55:16.510Z,101595.03
2023-02-19T22:00:18.159Z,101590.41
2023-02-19T22:05:19.623Z,101572.88
2023-02-19T22:10:21.471Z,101559.22
2023-02-19T22:15:22.929Z,101553.03
2023-02-19T22:20:24.395Z,101549.88
2023-02-19T22:25:25.855Z,101541.34
2023-02-19T22:30:27.411Z,101532.34
2023-02-19T22:35:29.078Z,101533.59
2023-02-19T22:40:30.552Z,101526.25
2023-02-19T22:45:32.039Z,101509.25
2023-02-19T22:50:33.528Z,101493.88
2023-02-19T22:55:35.077Z,101505.19
2023-02-19T23:00:36.553Z,101479.47
2023-02-19T23:05:38.018Z,101469.59
2023-02-19T23:10:40.871Z,101453.44
2023-02-19T23:15:42.349Z,101436.31
2023-02-19T23:20:43.808Z,101440.31
2023-02-19T23:25:45.255Z,101425.38
2023-02-19T23:30:46.849Z,101427.91
2023-02-19T23:35:48.344Z,101421.56
2023-02-19T23:40:49.825Z,101407.66
2023-02-19T23:45:51.284Z,101401.91
2023-02-19T23:50:52.755Z,101395.47
2023-02-19T23:55:54.218Z,101362.22
